Time;durP1;ratioP1;P1;durP2;ratioP2;P2;SDS_P1;SDS_P2;PMS_P1;PMS_P2;Temp;Humidity;BMP_temperature;BMP_pressure;BME280_temperature;BME280_humidity;BME280_pressure;Samples;Min_cycle;Max_cycle;Signal;HPM_P1;HPM_P2
2022/01/13 00:00:34;;;;;;;46.83;18.65;;;;;;;-4.34;100.00;100938.78;4842692;29;20045;-64
2022/01/13 00:03:00;;;;;;;42.50;18.90;;;;;;;-4.26;100.00;100929.75;4842583;29;20030;-64
2022/01/13 00:05:29;;;;;;;43.85;18.73;;;;;;;-4.32;100.00;100931.75;4842496;29;20181;-64
2022/01/13 00:07:57;;;;;;;46.90;18.73;;;;;;;-4.29;100.00;100939.47;4842812;29;20042;-65
2022/01/13 00:10:24;;;;;;;45.78;19.20;;;;;;;-4.24;100.00;100945.34;4842494;29;20038;-64
2022/01/13 00:12:57;;;;;;;42.05;17.60;;;;;;;-4.31;100.00;100949.13;4842575;29;20034;-64
2022/01/13 00:15:37;;;;;;;44.53;19.30;;;;;;;-4.37;100.00;100943.22;4842651;29;20038;-65
2022/01/13 00:18:10;;;;;;;44.08;17.38;;;;;;;-4.32;100.00;100952.63;4842323;29;20504;-64
2022/01/13 00:20:59;;;;;;;47.08;19.08;;;;;;;-4.30;100.00;100958.66;4842420;29;20042;-65
2022/01/13 00:26:15;;;;;;;44.33;18.50;;;;;;;-4.18;100.00;100964.25;4842367;29;20046;-64
2022/01/13 00:28:44;;;;;;;44.22;17.90;;;;;;;-4.37;100.00;100965.84;4841878;29;20045;-65
2022/01/13 00:31:11;;;;;;;45.67;17.98;;;;;;;-4.48;100.00;100961.03;4842268;29;20045;-65
2022/01/13 00:33:43;;;;;;;41.00;17.30;;;;;;;-4.46;100.00;100963.59;4842227;29;20026;-65
2022/01/13 00:36:08;;;;;;;42.15;17.83;;;;;;;-4.37;100.00;100968.47;4842573;29;20433;-65
2022/01/13 00:38:34;;;;;;;45.63;17.30;;;;;;;-4.34;100.00;100968.34;4842149;29;20038;-64
2022/01/13 00:41:01;;;;;;;38.77;16.17;;;;;;;-4.31;100.00;100972.63;4842109;29;20396;-64
2022/01/13 00:43:27;;;;;;;39.42;16.73;;;;;;;-4.22;100.00;100975.72;4841973;29;20166;-65
2022/01/13 00:45:53;;;;;;;42.73;18.27;;;;;;;-3.99;100.00;100977.44;4842073;29;20129;-65
2022/01/13 00:48:18;;;;;;;39.90;17.77;;;;;;;-4.04;100.00;100977.59;4842016;29;20265;-65
2022/01/13 00:50:45;;;;;;;41.70;17.60;;;;;;;-4.30;100.00;100983.00;4840601;29;20495;-65
2022/01/13 00:53:10;;;;;;;40.45;16.30;;;;;;;-4.31;100.00;100981.28;4841949;29;20030;-64
2022/01/13 00:55:57;;;;;;;40.27;16.57;;;;;;;-4.29;100.00;100978.63;4841814;29;20090;-64
2022/01/13 00:58:26;;;;;;;39.47;17.40;;;;;;;-4.45;100.00;100981.81;4841870;29;20528;-65
2022/01/13 01:00:52;;;;;;;42.03;15.98;;;;;;;-4.26;100.00;100976.72;4841719;29;20030;-64
2022/01/13 01:03:18;;;;;;;41.25;17.02;;;;;;;-4.23;100.00;100986.22;4841579;29;20022;-65
2022/01/13 01:05:44;;;;;;;41.67;17.20;;;;;;;-4.35;100.00;100982.31;4841549;29;20469;-64
2022/01/13 01:08:10;;;;;;;41.27;17.73;;;;;;;-4.39;100.00;100978.97;4841494;29;20086;-64
2022/01/13 01:10:37;;;;;;;43.28;17.77;;;;;;;-4.35;100.00;100984.91;4841399;29;20033;-65
2022/01/13 01:13:11;;;;;;;44.25;17.25;;;;;;;-4.22;100.00;100985.31;4841543;29;20030;-65
2022/01/13 01:15:39;;;;;;;41.50;17.45;;;;;;;-4.27;100.00;100980.28;4840629;29;20437;-64
2022/01/13 01:18:17;;;;;;;43.70;17.35;;;;;;;-4.15;100.00;100986.75;4841297;29;20120;-64
2022/01/13 01:20:51;;;;;;;43.80;17.13;;;;;;;-4.12;100.00;100986.66;4841561;29;20396;-65
2022/01/13 01:23:21;;;;;;;41.67;17.10;;;;;;;-4.15;100.00;100981.53;4841277;29;20109;-64
2022/01/13 01:28:50;;;;;;;39.30;16.45;;;;;;;-3.99;100.00;100967.00;4820616;29;20054;-64
2022/01/13 01:31:17;;;;;;;40.83;16.48;;;;;;;-3.99;100.00;100964.38;4820786;29;20496;-64
2022/01/13 01:33:53;;;;;;;42.40;17.38;;;;;;;-3.92;100.00;100973.66;4820791;29;20037;-65
2022/01/13 01:36:18;;;;;;;41.63;16.67;;;;;;;-3.91;100.00;100962.31;4805476;29;20046;-65
2022/01/13 01:38:48;;;;;;;41.90;17.97;;;;;;;-3.98;100.00;100965.25;4820551;29;20114;-65
2022/01/13 01:41:14;;;;;;;42.97;16.90;;;;;;;-3.73;100.00;100953.75;4819935;29;20400;-64
2022/01/13 01:43:39;;;;;;;41.40;17.03;;;;;;;-3.75;100.00;100957.34;4805268;29;20031;-64
2022/01/13 01:46:05;;;;;;;45.97;18.00;;;;;;;-3.78;100.00;100962.69;4805221;29;20485;-65
2022/01/13 01:48:35;;;;;;;44.20;18.33;;;;;;;-3.78;100.00;100966.16;4820457;29;20094;-64
2022/01/13 01:51:02;;;;;;;41.53;16.80;;;;;;;-3.64;100.00;100949.91;4820458;29;20552;-65
2022/01/13 01:53:28;;;;;;;44.28;17.77;;;;;;;-3.59;100.00;100954.97;4820468;29;20121;-64
2022/01/13 01:55:55;;;;;;;41.20;17.07;;;;;;;-3.57;100.00;100960.97;4820521;29;20581;-64
2022/01/13 01:58:22;;;;;;;42.10;16.85;;;;;;;-3.60;100.00;100961.09;4820397;29;20677;-65
2022/01/13 02:00:48;;;;;;;42.25;16.70;;;;;;;-3.47;100.00;100957.09;4820413;29;20041;-65
2022/01/13 02:03:15;;;;;;;41.67;16.77;;;;;;;-3.44;100.00;100943.88;4821181;29;20074;-65
2022/01/13 02:05:40;;;;;;;42.00;16.75;;;;;;;-3.42;100.00;100952.50;4840735;29;20045;-64
2022/01/13 02:08:06;;;;;;;42.57;17.20;;;;;;;-3.41;100.00;100948.97;4840661;29;20038;-66
2022/01/13 02:10:32;;;;;;;45.23;17.67;;;;;;;-3.37;100.00;100948.78;4840585;29;20040;-65
2022/01/13 02:13:04;;;;;;;44.93;18.07;;;;;;;-3.38;100.00;100944.47;4840803;29;20040;-64
2022/01/13 02:17:56;;;;;;;44.43;17.83;;;;;;;-3.38;100.00;100951.47;4840380;29;20118;-65
2022/01/13 02:20:22;;;;;;;40.15;16.65;;;;;;;-3.31;100.00;100947.66;4840690;29;20059;-64
2022/01/13 02:22:47;;;;;;;40.20;18.27;;;;;;;-3.35;100.00;100946.97;4840552;29;20034;-64
2022/01/13 02:25:14;;;;;;;41.17;17.33;;;;;;;-3.25;100.00;100949.19;4840688;29;20066;-65
2022/01/13 02:27:41;;;;;;;44.47;17.20;;;;;;;-3.23;100.00;100952.59;4840394;29;20041;-65
2022/01/13 02:30:09;;;;;;;39.45;17.10;;;;;;;-3.26;100.00;100953.56;4840450;29;20112;-64
2022/01/13 02:32:35;;;;;;;41.50;18.13;;;;;;;-3.21;100.00;100956.81;4840538;29;20044;-65
2022/01/13 02:35:00;;;;;;;45.15;18.88;;;;;;;-3.11;100.00;100958.13;4840578;29;20511;-65
2022/01/13 02:37:26;;;;;;;42.90;17.57;;;;;;;-3.06;100.00;100956.16;4840617;29;20030;-65
2022/01/13 02:39:51;;;;;;;44.13;18.30;;;;;;;-2.98;100.00;100947.97;4839223;29;20049;-64
2022/01/13 02:42:17;;;;;;;52.57;20.23;;;;;;;-2.86;100.00;100943.97;4840230;29;20041;-64
2022/01/13 02:44:52;;;;;;;52.40;20.87;;;;;;;-2.71;100.00;100944.16;4840427;29;20040;-65
2022/01/13 02:47:34;;;;;;;48.22;19.50;;;;;;;-2.60;100.00;100943.69;4840524;29;20391;-64
2022/01/13 02:50:04;;;;;;;52.78;20.38;;;;;;;-2.37;100.00;100948.72;4840481;29;20403;-65
2022/01/13 02:52:29;;;;;;;49.95;20.50;;;;;;;-2.33;100.00;100937.19;4842757;29;20057;-65
2022/01/13 02:54:55;;;;;;;50.43;21.60;;;;;;;-2.18;100.00;100933.00;4843910;29;20120;-64
2022/01/13 02:57:20;;;;;;;51.17;20.53;;;;;;;-1.99;100.00;100933.00;4843812;29;20034;-64
2022/01/13 02:59:46;;;;;;;44.57;19.10;;;;;;;-2.01;100.00;100930.44;4843761;29;20041;-64
2022/01/13 03:02:12;;;;;;;51.40;20.97;;;;;;;-2.00;100.00;100934.75;4843650;29;20034;-64
2022/01/13 03:04:37;;;;;;;52.20;20.83;;;;;;;-2.07;100.00;100940.34;4843650;29;20069;-65
2022/01/13 03:07:04;;;;;;;46.03;19.10;;;;;;;-1.96;100.00;100945.94;4843643;29;20062;-65
2022/01/13 03:09:29;;;;;;;52.78;21.33;;;;;;;-2.04;100.00;100953.31;4843597;29;20041;-64
2022/01/13 03:11:55;;;;;;;47.60;20.20;;;;;;;-1.98;100.00;100948.63;4843563;29;20447;-65
2022/01/13 03:14:20;;;;;;;55.77;21.43;;;;;;;-2.08;100.00;100957.84;4843569;29;20034;-64
2022/01/13 03:16:46;;;;;;;50.73;20.73;;;;;;;-1.89;100.00;100950.81;4843485;29;20034;-65
2022/01/13 03:19:12;;;;;;;50.13;20.03;;;;;;;-1.87;100.00;100959.44;4842049;29;20049;-65
2022/01/13 03:21:38;;;;;;;51.20;20.17;;;;;;;-1.92;100.00;100964.06;4843348;29;20463;-64
2022/01/13 03:24:09;;;;;;;50.22;21.02;;;;;;;-1.97;100.00;100954.72;4843573;29;20499;-65
2022/01/13 03:26:35;;;;;;;50.33;20.85;;;;;;;-1.95;100.00;100973.81;4843031;29;20065;-65
2022/01/13 03:31:39;;;;;;;49.75;21.13;;;;;;;-1.79;100.00;100979.19;4843546;29;20038;-64
2022/01/13 03:34:04;;;;;;;51.08;21.02;;;;;;;-1.85;100.00;100982.97;4843243;29;20049;-64
2022/01/13 03:36:30;;;;;;;53.43;21.40;;;;;;;-1.84;100.00;100982.88;4843206;29;20037;-64
2022/01/13 03:38:56;;;;;;;48.87;19.90;;;;;;;-1.90;100.00;100977.94;4842857;29;20121;-65
2022/01/13 03:41:22;;;;;;;55.80;22.10;;;;;;;-1.87;100.00;100956.84;4841989;29;20109;-65
2022/01/13 03:43:51;;;;;;;49.92;20.15;;;;;;;-1.94;100.00;100949.31;4843064;29;20017;-65
2022/01/13 03:46:18;;;;;;;53.25;21.38;;;;;;;-1.95;100.00;100952.84;4843069;29;20106;-65
2022/01/13 03:48:44;;;;;;;53.42;20.92;;;;;;;-1.98;100.00;100927.69;4841742;29;20078;-65
2022/01/13 03:51:10;;;;;;;52.07;20.73;;;;;;;-2.01;100.00;100898.16;4843091;29;20041;-64
2022/01/13 03:53:38;;;;;;;47.20;20.00;;;;;;;-2.05;100.00;100907.91;4843150;29;20105;-65
2022/01/13 03:56:41;;;;;;;52.20;20.65;;;;;;;-2.01;100.00;100917.34;4842875;29;20280;-65
2022/01/13 03:59:43;;;;;;;52.42;21.05;;;;;;;-2.12;100.00;100917.00;4839916;29;20052;-64
2022/01/13 04:02:11;;;;;;;51.85;20.45;;;;;;;-2.24;100.00;100926.28;4824601;29;20081;-65
2022/01/13 04:04:45;;;;;;;45.88;18.98;;;;;;;-2.33;100.00;100928.50;4842183;29;20040;-64
2022/01/13 04:07:28;;;;;;;46.58;19.85;;;;;;;-2.31;100.00;100939.75;4842862;29;20496;-65
2022/01/13 04:09:54;;;;;;;49.03;20.33;;;;;;;-2.38;100.00;100954.03;4842752;29;20036;-64
2022/01/13 04:12:21;;;;;;;49.63;19.07;;;;;;;-2.39;100.00;100952.31;4842699;29;20112;-64
2022/01/13 04:14:52;;;;;;;51.72;20.83;;;;;;;-2.38;100.00;100936.53;4842550;29;20065;-64
2022/01/13 04:17:20;;;;;;;50.28;19.92;;;;;;;-2.46;100.00;100933.44;4842548;29;20157;-64
2022/01/13 04:19:47;;;;;;;49.15;19.50;;;;;;;-2.48;100.00;100934.41;4842428;29;20141;-65
2022/01/13 04:22:14;;;;;;;48.78;19.42;;;;;;;-2.58;100.00;100952.31;4842441;29;20074;-65
2022/01/13 04:24:45;;;;;;;51.65;21.38;;;;;;;-2.58;100.00;100939.22;4842466;29;20048;-65
2022/01/13 04:27:20;;;;;;;49.35;19.50;;;;;;;-2.43;100.00;100945.53;4842321;29;20128;-65
2022/01/13 04:29:48;;;;;;;54.42;19.92;;;;;;;-2.33;100.00;100944.19;4841456;29;20105;-65
2022/01/13 04:32:14;;;;;;;47.15;20.45;;;;;;;-2.26;100.00;100951.69;4842307;29;20056;-65
2022/01/13 04:34:40;;;;;;;49.10;20.23;;;;;;;-2.15;100.00;100953.81;4842342;29;20033;-65
2022/01/13 04:37:05;;;;;;;47.93;19.03;;;;;;;-2.02;100.00;100946.22;4842271;29;20103;-65
2022/01/13 04:39:32;;;;;;;51.83;20.83;;;;;;;-2.01;100.00;100946.16;4841122;29;20403;-65
2022/01/13 04:41:59;;;;;;;52.55;21.17;;;;;;;-1.99;100.00;100952.19;4842211;29;20103;-65
2022/01/13 04:44:25;;;;;;;51.30;20.05;;;;;;;-1.99;100.00;100951.31;4842021;29;20042;-65
2022/01/13 04:46:54;;;;;;;52.67;21.38;;;;;;;-1.86;100.00;100960.31;4842092;29;20065;-64
2022/01/13 04:49:20;;;;;;;50.20;20.60;;;;;;;-1.85;100.00;100964.63;4841996;29;20442;-64
2022/01/13 04:51:49;;;;;;;50.05;21.15;;;;;;;-2.04;100.00;100966.41;4841844;29;20058;-64
2022/01/13 04:54:16;;;;;;;51.50;21.23;;;;;;;-1.88;100.00;100960.38;4841775;29;20038;-64
2022/01/13 04:57:05;;;;;;;47.65;20.02;;;;;;;-1.83;100.00;100962.75;4841741;29;20094;-65
2022/01/13 04:59:30;;;;;;;49.10;20.25;;;;;;;-2.10;100.00;100970.16;4841592;29;20034;-65
2022/01/13 05:01:56;;;;;;;49.47;20.63;;;;;;;-1.95;100.00;100971.19;4841650;29;20391;-65
2022/01/13 05:04:22;;;;;;;50.17;19.73;;;;;;;-2.01;100.00;100974.97;4841387;29;20033;-65
2022/01/13 05:06:48;;;;;;;43.38;18.70;;;;;;;-2.10;100.00;100979.78;4841720;29;20373;-65
2022/01/13 05:09:13;;;;;;;47.40;19.10;;;;;;;-2.02;100.00;100975.88;4841619;29;20102;-65
2022/01/13 05:11:39;;;;;;;50.60;21.17;;;;;;;-1.87;100.00;100971.69;4841531;29;20090;-65
2022/01/13 05:14:05;;;;;;;48.43;19.60;;;;;;;-1.95;100.00;100977.28;4841548;29;20025;-65
2022/01/13 05:16:49;;;;;;;44.07;19.27;;;;;;;-2.05;100.00;100989.13;4840753;29;20040;-65
2022/01/13 05:19:20;;;;;;;49.60;20.45;;;;;;;-1.99;100.00;101004.56;4840269;29;20269;-65
2022/01/13 05:24:24;;;;;;;47.83;19.98;;;;;;;-1.92;100.00;100985.00;4841342;29;20457;-65
2022/01/13 05:26:51;;;;;;;51.50;20.25;;;;;;;-1.91;100.00;100980.63;4841277;29;20044;-65
2022/01/13 05:29:20;;;;;;;48.50;20.33;;;;;;;-2.02;100.00;100983.75;4841214;29;20546;-66
2022/01/13 05:31:46;;;;;;;52.80;21.48;;;;;;;-1.73;100.00;100990.22;4841208;29;20030;-66
2022/01/13 05:34:12;;;;;;;51.17;20.40;;;;;;;-1.70;100.00;100981.34;4841251;29;20116;-65
2022/01/13 05:36:37;;;;;;;50.33;19.97;;;;;;;-1.67;100.00;100983.84;4841213;29;20112;-65
2022/01/13 05:39:03;;;;;;;55.27;21.63;;;;;;;-1.56;100.00;100998.13;4841041;29;20034;-65
2022/01/13 05:41:30;;;;;;;52.90;20.90;;;;;;;-1.48;100.00;101010.84;4841224;29;20460;-65
2022/01/13 05:43:56;;;;;;;49.03;20.92;;;;;;;-1.42;100.00;101007.94;4839570;29;20049;-65
2022/01/13 05:46:21;;;;;;;49.70;20.80;;;;;;;-1.44;100.00;101007.19;4841007;29;20072;-65
2022/01/13 05:48:47;;;;;;;53.27;21.30;;;;;;;-1.36;100.00;101004.16;4840924;29;20452;-65
2022/01/13 05:51:13;;;;;;;50.80;21.07;;;;;;;-1.43;100.00;101006.25;4841019;29;20128;-65
2022/01/13 05:53:38;;;;;;;54.70;21.10;;;;;;;-1.52;100.00;101011.94;4840947;29;20032;-65
2022/01/13 05:56:04;;;;;;;54.67;22.03;;;;;;;-1.35;100.00;101005.88;4840855;29;20034;-65
2022/01/13 05:58:29;;;;;;;53.90;22.87;;;;;;;-1.35;100.00;100995.38;4840819;29;20094;-66
2022/01/13 06:00:55;;;;;;;52.93;20.53;;;;;;;-1.35;100.00;100998.00;4840757;29;20037;-67
2022/01/13 06:03:20;;;;;;;55.03;22.17;;;;;;;-1.34;100.00;100997.94;4840712;29;20032;-65
2022/01/13 06:05:46;;;;;;;52.10;22.30;;;;;;;-1.35;100.00;100990.97;4840822;29;20484;-65
2022/01/13 06:08:12;;;;;;;52.20;21.03;;;;;;;-1.37;100.00;100994.59;4840995;29;20033;-65
2022/01/13 06:10:42;;;;;;;52.93;21.80;;;;;;;-1.39;100.00;100988.59;4840782;29;20057;-65
2022/01/13 06:13:08;;;;;;;55.10;22.50;;;;;;;-1.36;100.00;100994.53;4840975;29;20041;-65
2022/01/13 06:15:36;;;;;;;55.60;21.93;;;;;;;-1.35;100.00;100996.22;4840727;29;20112;-65
2022/01/13 06:18:04;;;;;;;56.42;22.92;;;;;;;-1.31;100.00;100986.44;4840216;29;20508;-65
2022/01/13 06:20:30;;;;;;;53.95;23.05;;;;;;;-1.29;100.00;100987.22;4840617;29;20046;-65
2022/01/13 06:22:57;;;;;;;55.83;22.80;;;;;;;-1.26;100.00;100987.91;4840498;29;20087;-65
2022/01/13 06:25:23;;;;;;;56.75;22.67;;;;;;;-1.23;100.00;100981.66;4840530;29;20042;-65
2022/01/13 06:27:50;;;;;;;119.97;47.87;;;;;;;-1.13;100.00;100980.25;4845683;29;20132;-65
2022/01/13 06:30:16;;;;;;;57.47;23.10;;;;;;;-1.19;100.00;100970.09;4846725;29;20107;-66
2022/01/13 06:32:43;;;;;;;58.67;23.80;;;;;;;-1.27;100.00;100974.88;4846469;29;20116;-65
2022/01/13 06:35:10;;;;;;;55.35;23.55;;;;;;;-1.31;100.00;100978.56;4846563;29;20380;-65
2022/01/13 06:37:36;;;;;;;58.38;23.50;;;;;;;-1.25;100.00;100981.72;4846358;29;20112;-66
2022/01/13 06:40:05;;;;;;;58.10;23.53;;;;;;;-1.26;100.00;100987.03;4845257;29;20041;-65
2022/01/13 06:42:30;;;;;;;55.22;23.45;;;;;;;-1.35;100.00;100987.50;4846339;29;20085;-65
2022/01/13 06:44:56;;;;;;;57.47;24.10;;;;;;;-1.31;100.00;100984.66;4846460;29;20049;-65
2022/01/13 06:47:21;;;;;;;60.00;24.57;;;;;;;-1.27;100.00;100991.44;4846506;29;20041;-65
2022/01/13 06:49:47;;;;;;;57.13;23.23;;;;;;;-1.26;100.00;100995.75;4846293;29;20034;-65
2022/01/13 06:52:13;;;;;;;61.70;23.90;;;;;;;-1.15;100.00;100996.06;4846635;29;20068;-64
2022/01/13 06:54:39;;;;;;;61.07;23.53;;;;;;;-1.15;100.00;100997.84;4846480;29;20034;-63
2022/01/13 06:57:05;;;;;;;63.43;25.40;;;;;;;-1.18;100.00;100998.88;4846464;29;20046;-64
2022/01/13 06:59:31;;;;;;;61.55;24.38;;;;;;;-1.25;100.00;101004.47;4846496;29;20026;-63
2022/01/13 07:02:00;;;;;;;57.55;22.95;;;;;;;-1.23;100.00;101003.50;4847504;29;20129;-64
2022/01/13 07:04:26;;;;;;;58.58;22.92;;;;;;;-1.19;100.00;101012.91;4844616;29;20033;-63
2022/01/13 07:06:51;;;;;;;79.05;31.95;;;;;;;-1.18;100.00;101011.13;4828165;29;20050;-63
2022/01/13 07:09:17;;;;;;;60.03;24.57;;;;;;;-1.25;100.00;101012.34;4827792;29;20042;-63
2022/01/13 07:11:44;;;;;;;60.27;25.00;;;;;;;-1.21;100.00;101013.91;4846243;29;20051;-63
2022/01/13 07:14:10;;;;;;;65.10;24.40;;;;;;;-1.11;100.00;101012.53;4846304;29;20038;-63
2022/01/13 07:16:36;;;;;;;63.30;25.97;;;;;;;-1.19;100.00;101020.78;4845882;29;20042;-63
2022/01/13 07:19:03;;;;;;;68.83;26.10;;;;;;;-1.04;100.00;101029.69;4848681;29;20103;-64
2022/01/13 07:21:28;;;;;;;62.70;25.50;;;;;;;-1.22;100.00;101038.44;4864717;29;20128;-64
2022/01/13 07:23:54;;;;;;;65.67;25.07;;;;;;;-0.75;100.00;101044.78;4864382;29;20037;-67
2022/01/13 07:26:20;;;;;;;61.67;24.13;;;;;;;-0.41;100.00;101043.88;4864256;29;20045;-63
2022/01/13 07:28:45;;;;;;;60.23;24.60;;;;;;;-0.73;100.00;101044.72;4864546;29;20038;-63
2022/01/13 07:31:14;;;;;;;64.50;24.60;;;;;;;-0.75;100.00;101038.69;4864564;29;20029;-64
2022/01/13 07:33:43;;;;;;;60.95;25.13;;;;;;;-0.88;100.00;101029.72;4864494;29;20543;-63
2022/01/13 07:36:08;;;;;;;59.65;24.27;;;;;;;-1.18;100.00;101030.34;4853460;29;20033;-63
2022/01/13 07:38:34;;;;;;;61.87;24.57;;;;;;;-1.01;100.00;101024.25;4843317;29;20510;-64
2022/01/13 07:41:00;;;;;;;63.13;25.73;;;;;;;-0.91;100.00;101033.34;4841486;29;20084;-64
2022/01/13 07:43:26;;;;;;;61.90;25.53;;;;;;;-1.10;100.00;101033.44;4844491;29;20037;-64
2022/01/13 07:45:53;;;;;;;62.78;25.33;;;;;;;-1.16;100.00;101028.50;4843116;29;20430;-63
2022/01/13 07:48:20;;;;;;;61.05;24.52;;;;;;;-1.00;100.00;101027.72;4842938;29;20538;-64
2022/01/13 07:50:48;;;;;;;65.18;25.23;;;;;;;-1.13;100.00;101033.59;4842720;29;20145;-65
2022/01/13 07:53:14;;;;;;;59.80;23.90;;;;;;;-1.07;100.00;101040.31;4842791;29;20592;-65
2022/01/13 07:55:39;;;;;;;54.15;21.42;;;;;;;-1.06;100.00;101033.28;4841558;29;20034;-64
2022/01/13 07:58:05;;;;;;;59.50;22.43;;;;;;;-1.08;100.00;101036.00;4842736;29;20499;-64
2022/01/13 08:00:30;;;;;;;56.77;22.80;;;;;;;-0.99;100.00;101039.91;4842776;29;20079;-63
2022/01/13 08:02:56;;;;;;;54.93;22.83;;;;;;;-1.01;100.00;101047.88;4841323;29;20041;-64
2022/01/13 08:05:21;;;;;;;48.40;19.53;;;;;;;-1.23;100.00;101052.47;4842720;29;20034;-64
2022/01/13 08:07:47;;;;;;;51.13;22.43;;;;;;;-1.21;100.00;101061.97;4842567;29;20425;-64
2022/01/13 08:10:13;;;;;;;51.53;21.57;;;;;;;-1.24;100.00;101061.25;4842928;29;20109;-64
2022/01/13 08:12:39;;;;;;;50.50;20.50;;;;;;;-1.13;100.00;101062.44;4845145;29;20041;-65
2022/01/13 08:15:12;;;;;;;56.50;22.35;;;;;;;-0.90;100.00;101070.94;4855508;29;20044;-64
2022/01/13 08:20:26;;;;;;;52.70;20.42;;;;;;;-1.11;100.00;101054.50;4842640;29;20048;-65
2022/01/13 08:22:52;;;;;;;53.20;20.53;;;;;;;-0.84;100.00;101050.50;4842175;29;20038;-65
2022/01/13 08:25:18;;;;;;;48.83;21.27;;;;;;;-0.68;100.00;101055.81;4842483;29;20097;-64
2022/01/13 08:27:43;;;;;;;45.50;19.07;;;;;;;-0.83;100.00;101046.09;4842405;29;20037;-64
2022/01/13 08:30:10;;;;;;;47.90;19.87;;;;;;;-1.00;100.00;101053.97;4842274;29;20314;-64
2022/01/13 08:32:36;;;;;;;47.05;20.67;;;;;;;-1.08;100.00;101056.13;4842106;29;20030;-65
2022/01/13 08:35:02;;;;;;;44.50;18.53;;;;;;;-1.37;100.00;101063.63;4842038;29;20044;-64
2022/01/13 08:37:27;;;;;;;47.00;20.10;;;;;;;-1.14;100.00;101050.25;4842088;29;20033;-64
2022/01/13 08:39:55;;;;;;;51.33;20.30;;;;;;;-0.94;100.00;101051.91;4840570;29;20036;-64
2022/01/13 08:42:22;;;;;;;43.30;18.02;;;;;;;-0.91;100.00;101056.97;4841998;29;20069;-64
2022/01/13 08:44:47;;;;;;;45.35;18.00;;;;;;;-1.01;100.00;101058.34;4841750;29;20404;-64
2022/01/13 08:47:13;;;;;;;49.33;21.73;;;;;;;-1.20;100.00;101071.53;4841811;29;20038;-63
2022/01/13 08:49:39;;;;;;;47.73;19.13;;;;;;;-1.11;100.00;101067.63;4841622;29;20098;-63
2022/01/13 08:52:06;;;;;;;42.05;17.75;;;;;;;-0.97;100.00;101078.28;4840555;29;20042;-63
2022/01/13 08:54:32;;;;;;;46.33;18.88;;;;;;;-0.92;100.00;101078.88;4841613;29;20093;-63
2022/01/13 08:56:58;;;;;;;44.67;18.43;;;;;;;-0.95;100.00;101080.84;4841694;29;20437;-63
2022/01/13 08:59:23;;;;;;;43.60;18.63;;;;;;;-0.95;100.00;101080.84;4841692;29;20554;-64
2022/01/13 09:01:49;;;;;;;50.30;18.20;;;;;;;-1.02;100.00;101090.78;4841580;29;20030;-62
2022/01/13 09:04:15;;;;;;;43.17;18.47;;;;;;;-0.86;100.00;101086.47;4841641;29;20120;-63
2022/01/13 09:06:40;;;;;;;49.50;18.47;;;;;;;-0.80;100.00;101090.56;4841456;29;20037;-63
2022/01/13 09:09:06;;;;;;;42.57;18.40;;;;;;;-0.78;100.00;101100.06;4841508;29;20038;-63
2022/01/13 09:11:31;;;;;;;46.53;19.43;;;;;;;-0.58;100.00;101112.19;4841426;29;20100;-63
2022/01/13 09:13:58;;;;;;;47.83;19.47;;;;;;;-0.59;100.00;101107.88;4841325;29;20057;-63
2022/01/13 09:16:25;;;;;;;45.95;18.67;;;;;;;-0.46;100.00;101108.06;4841529;29;20042;-63
2022/01/13 09:21:23;;;;;;;49.58;19.27;;;;;;;-0.56;100.00;101099.81;4841816;29;20038;-63
2022/01/13 09:23:49;;;;;;;48.28;19.08;;;;;;;-0.37;100.00;101094.50;4841149;29;20090;-63
2022/01/13 09:26:14;;;;;;;45.40;19.10;;;;;;;-0.34;100.00;101098.72;4841389;29;20042;-63
2022/01/13 09:28:40;;;;;;;46.73;19.13;;;;;;;-0.16;100.00;101101.25;4841402;29;20076;-63
2022/01/13 09:31:06;;;;;;;49.63;19.63;;;;;;;-0.24;100.00;101094.72;4841254;29;20025;-64
2022/01/13 09:33:32;;;;;;;44.65;17.67;;;;;;;-0.27;100.00;101105.38;4841055;29;20581;-64
2022/01/13 09:35:58;;;;;;;44.35;18.15;;;;;;;-0.51;100.00;101108.31;4841279;29;20404;-64
2022/01/13 09:38:23;;;;;;;43.08;17.05;;;;;;;-0.49;100.00;101101.22;4841281;29;20048;-63
2022/01/13 09:40:52;;;;;;;41.17;17.03;;;;;;;-0.43;100.00;101106.16;4841085;29;20037;-62
2022/01/13 09:43:20;;;;;;;43.20;16.30;;;;;;;-0.27;100.00;101102.75;4841076;29;20388;-62
2022/01/13 09:45:46;;;;;;;43.50;18.50;;;;;;;-0.21;100.00;101094.53;4840927;29;20034;-62
2022/01/13 09:48:11;;;;;;;45.43;18.23;;;;;;;-0.10;100.00;101105.31;4839740;29;20511;-63
2022/01/13 09:50:39;;;;;;;41.53;17.67;;;;;;;-0.41;100.00;101098.19;4840802;29;20067;-63
2022/01/13 09:53:04;;;;;;;49.33;19.75;;;;;;;-0.07;100.00;101087.63;4840826;29;20030;-63
2022/01/13 09:55:30;;;;;;;41.97;17.90;;;;;;;-0.09;100.00;101097.34;4841229;29;20033;-68
2022/01/13 09:58:00;;;;;;;44.43;17.87;;;;;;;-0.15;100.00;101094.22;4840921;29;20040;-68
2022/01/13 10:00:26;;;;;;;40.95;18.13;;;;;;;-0.20;100.00;101094.44;4841446;29;20124;-63
2022/01/13 10:02:52;;;;;;;41.70;17.85;;;;;;;-0.01;100.00;101092.56;4841100;29;20404;-63
2022/01/13 10:05:20;;;;;;;42.45;17.58;;;;;;;0.31;100.00;101084.72;4841619;29;20112;-65
2022/01/13 10:07:47;;;;;;;49.00;20.25;;;;;;;0.22;100.00;101083.44;4841803;29;20056;-66
2022/01/13 10:10:16;;;;;;;47.38;19.55;;;;;;;0.27;100.00;101080.53;4853359;29;20037;-66
2022/01/13 10:12:44;;;;;;;57.00;21.60;;;;;;;0.30;100.00;101070.72;4860245;29;20034;-66
2022/01/13 10:17:50;;;;;;;56.22;22.50;;;;;;;0.15;100.00;101079.44;4859840;29;20161;-66
2022/01/13 10:20:23;;;;;;;55.85;21.27;;;;;;;0.07;100.00;101080.78;4852553;29;20082;-64
2022/01/13 10:22:49;;;;;;;50.55;21.38;;;;;;;0.33;100.00;101074.97;4856827;29;20034;-64
2022/01/13 10:25:26;;;;;;;54.17;22.15;;;;;;;0.35;100.00;101062.56;4860273;29;20037;-64
2022/01/13 10:27:52;;;;;;;52.63;21.10;;;;;;;0.50;100.00;101056.47;4860388;29;20391;-63
2022/01/13 10:30:18;;;;;;;53.30;20.70;;;;;;;0.51;100.00;101047.63;4844681;29;20273;-64
2022/01/13 10:32:45;;;;;;;51.63;20.60;;;;;;;0.46;100.00;101039.16;4840646;29;20038;-64
2022/01/13 10:35:11;;;;;;;51.00;19.87;;;;;;;0.28;100.00;101037.53;4840647;29;20053;-65
2022/01/13 10:37:39;;;;;;;55.80;22.30;;;;;;;0.52;100.00;101040.59;4840490;29;20269;-63
2022/01/13 10:40:13;;;;;;;53.10;20.03;;;;;;;0.41;100.00;101030.69;4822360;29;20044;-63
2022/01/13 10:43:06;;;;;;;57.80;21.48;;;;;;;0.39;100.00;101023.81;4822134;29;20323;-66
2022/01/13 10:45:29;;;;;;;56.03;20.98;;;;;;;0.56;100.00;101021.09;4822283;29;20053;-64
2022/01/13 10:47:55;;;;;;;55.63;21.73;;;;;;;0.38;100.00;101014.22;4822482;29;20034;-64
2022/01/13 10:50:22;;;;;;;57.35;22.80;;;;;;;0.17;100.00;101018.88;4822722;29;20067;-64
2022/01/13 10:52:49;;;;;;;59.45;22.65;;;;;;;0.54;100.00;101017.69;4829575;29;20038;-64
2022/01/13 10:55:23;;;;;;;56.00;22.00;;;;;;;0.20;100.00;101005.59;4840906;29;20077;-64
2022/01/13 10:57:50;;;;;;;54.70;21.73;;;;;;;0.28;100.00;100992.84;4840735;29;20037;-64
2022/01/13 11:00:20;;;;;;;54.67;22.27;;;;;;;0.33;100.00;100996.94;4840814;29;20352;-64
2022/01/13 11:03:00;;;;;;;57.33;23.17;;;;;;;0.12;100.00;100989.38;4840103;29;20038;-63
2022/01/13 11:05:27;;;;;;;55.40;22.13;;;;;;;0.42;100.00;100986.81;4840179;29;20042;-63
2022/01/13 11:07:52;;;;;;;60.60;22.63;;;;;;;0.34;100.00;100989.88;4840488;29;20677;-64
2022/01/13 11:10:18;;;;;;;57.53;22.10;;;;;;;0.66;100.00;100988.06;4840160;29;20266;-63
2022/01/13 11:12:45;;;;;;;55.43;21.63;;;;;;;0.56;100.00;100976.38;4839134;29;20044;-64
2022/01/13 11:15:15;;;;;;;57.53;21.83;;;;;;;0.52;100.00;100972.19;4843657;29;20030;-64
2022/01/13 11:17:44;;;;;;;56.13;22.13;;;;;;;0.56;100.00;100969.31;4843865;29;20036;-65
2022/01/13 11:20:15;;;;;;;60.07;22.93;;;;;;;0.67;100.00;100977.44;4843997;29;20673;-64
2022/01/13 11:22:45;;;;;;;52.50;21.80;;;;;;;0.88;100.00;100995.53;4843661;29;20277;-66
2022/01/13 11:25:13;;;;;;;54.20;21.23;;;;;;;0.92;100.00;100989.16;4843660;29;20273;-64